Time,TemperatureF,DewpointF,PressureIn,WindDirection,WindDirectionDegrees,WindSpeedMPH,WindSpeedGustMPH,Humidity,HourlyPrecipIn,Conditions,Clouds,dailyrainin,SoftwareType,DateUTC
2013-10-20 00:01:00,54.3,54.0,29.72,NNE,22,0.0,-999.0,99,-99.99,,,0.00,Acu-Link.com,2013-10-20 04:01:00,
2013-10-20 00:16:00,54.1,53.8,29.73,North,0,0.0,-999.0,99,-99.99,,,0.00,Acu-Link.com,2013-10-20 04:16:00,
2013-10-20 00:32:00,53.8,53.5,29.73,WNW,292,0.0,-999.0,99,-99.99,,,0.00,Acu-Link.com,2013-10-20 04:32:00,
2013-10-20 00:47:00,53.8,53.5,29.73,NW,315,0.0,-999.0,99,-99.99,,,0.00,Acu-Link.com,2013-10-20 04:47:00,
2013-10-20 01:02:00,53.2,52.9,29.73,NW,315,0.0,-999.0,99,-99.99,,,0.00,Acu-Link.com,2013-10-20 05:02:00,
2013-10-20 01:17:00,53.2,52.9,29.74,North,0,0.0,-999.0,99,-99.99,,,0.00,Acu-Link.com,2013-10-20 05:17:00,
2013-10-20 01:32:00,52.7,52.4,29.74,NW,315,0.0,-999.0,99,-99.99,,,0.00,Acu-Link.com,2013-10-20 05:32:00,
2013-10-20 01:47:00,52.7,52.4,29.74,NNW,337,0.0,-999.0,99,-99.99,,,0.00,Acu-Link.com,2013-10-20 05:47:00,
2013-10-20 02:02:00,52.5,52.2,29.75,North,0,0.0,-999.0,99,-99.99,,,0.00,Acu-Link.com,2013-10-20 06:02:00,
2013-10-20 02:17:00,52.2,51.9,29.75,NNE,22,0.0,-999.0,99,-99.99,,,0.00,Acu-Link.com,2013-10-20 06:17:00,
2013-10-20 02:34:00,52.0,51.7,29.76,NNE,22,0.0,-999.0,99,-99.99,,,0.00,Acu-Link.com,2013-10-20 06:34:00,
2013-10-20 02:49:00,51.8,51.5,29.76,NNE,22,0.0,-999.0,99,-99.99,,,0.00,Acu-Link.com,2013-10-20 06:49:00,
2013-10-20 03:04:00,51.3,51.0,29.77,NNW,337,0.0,-999.0,99,-99.99,,,0.00,Acu-Link.com,2013-10-20 07:04:00,
2013-10-20 03:20:00,52.3,52.0,29.77,North,0,1.7,-999.0,99,-99.99,,,0.00,Acu-Link.com,2013-10-20 07:20:00,
2013-10-20 03:35:00,52.0,51.7,29.76,NNW,337,1.7,-999.0,99,-99.99,,,0.00,Acu-Link.com,2013-10-20 07:35:00,
2013-10-20 03:50:00,52.0,51.7,29.77,North,0,1.7,-999.0,99,-99.99,,,0.00,Acu-Link.com,2013-10-20 07:50:00,
2013-10-20 04:05:00,52.0,51.2,29.77,North,0,1.7,-999.0,97,-99.99,,,0.00,Acu-Link.com,2013-10-20 08:05:00,
2013-10-20 04:20:00,52.0,50.6,29.77,North,0,1.7,-999.0,95,-99.99,,,0.00,Acu-Link.com,2013-10-20 08:20:00,
2013-10-20 04:36:00,51.8,50.1,29.77,NNW,337,1.1,-999.0,94,-99.99,,,0.00,Acu-Link.com,2013-10-20 08:36:00,
2013-10-20 04:51:00,51.3,49.6,29.77,NNW,337,1.7,-999.0,94,-99.99,,,0.00,Acu-Link.com,2013-10-20 08:51:00,
2013-10-20 05:06:00,51.1,49.1,29.77,NNW,337,1.7,-999.0,93,-99.99,,,0.00,Acu-Link.com,2013-10-20 09:06:00,
2013-10-20 05:21:00,50.7,48.8,29.77,NNE,22,0.0,-999.0,93,-99.99,,,0.00,Acu-Link.com,2013-10-20 09:21:00,
2013-10-20 05:36:00,49.3,48.5,29.78,North,0,0.0,-999.0,97,-99.99,,,0.00,Acu-Link.com,2013-10-20 09:36:00,
2013-10-20 05:51:00,48.9,48.6,29.79,NE,45,0.0,-999.0,99,-99.99,,,0.00,Acu-Link.com,2013-10-20 09:51:00,
2013-10-20 06:06:00,48.6,48.3,29.80,North,0,0.0,-999.0,99,-99.99,,,0.00,Acu-Link.com,2013-10-20 10:06:00,
2013-10-20 06:21:00,48.2,47.7,29.81,ENE,67,0.0,-999.0,98,-99.99,,,0.00,Acu-Link.com,2013-10-20 10:21:00,
2013-10-20 06:36:00,47.8,47.5,29.81,ENE,67,0.0,-999.0,99,-99.99,,,0.00,Acu-Link.com,2013-10-20 10:36:00,
2013-10-20 06:51:00,47.7,47.2,29.82,East,90,0.0,-999.0,98,-99.99,,,0.00,Acu-Link.com,2013-10-20 10:51:00,
2013-10-20 07:07:00,47.1,46.6,29.83,East,90,0.0,-999.0,98,-99.99,,,0.00,Acu-Link.com,2013-10-20 11:07:00,
2013-10-20 07:22:00,46.9,46.4,29.83,NE,45,0.0,-999.0,98,-99.99,,,0.00,Acu-Link.com,2013-10-20 11:22:00,
2013-10-20 07:37:00,46.6,46.3,29.84,NE,45,0.0,-999.0,99,-99.99,,,0.00,Acu-Link.com,2013-10-20 11:37:00,
2013-10-20 07:52:00,46.6,46.1,29.84,NE,45,0.0,-999.0,98,-99.99,,,0.00,Acu-Link.com,2013-10-20 11:52:00,
2013-10-20 08:07:00,46.8,46.0,29.85,North,0,0.0,-999.0,97,-99.99,,,0.00,Acu-Link.com,2013-10-20 12:07:00,
2013-10-20 08:22:00,46.8,45.2,29.86,ENE,67,0.0,-999.0,94,-99.99,,,0.00,Acu-Link.com,2013-10-20 12:22:00,
2013-10-20 08:37:00,47.5,45.0,29.86,NNE,22,0.0,-999.0,91,-99.99,,,0.00,Acu-Link.com,2013-10-20 12:37:00,
2013-10-20 08:52:00,47.8,44.7,29.87,NNW,337,2.7,-999.0,89,-99.99,,,0.00,Acu-Link.com,2013-10-20 12:52:00,
2013-10-20 09:07:00,48.9,44.6,29.88,NNE,22,1.1,-999.0,85,-99.99,,,0.00,Acu-Link.com,2013-10-20 13:07:00,
2013-10-20 09:23:00,49.8,44.5,29.89,ESE,112,3.2,-999.0,82,-99.99,,,0.00,Acu-Link.com,2013-10-20 13:23:00,
2013-10-20 09:38:00,50.4,44.1,29.90,East,90,2.7,-999.0,79,-99.99,,,0.00,Acu-Link.com,2013-10-20 13:38:00,
2013-10-20 09:53:00,51.3,44.7,29.90,NNW,337,3.7,-999.0,78,-99.99,,,0.00,Acu-Link.com,2013-10-20 13:53:00,
2013-10-20 10:08:00,52.3,43.2,29.90,ESE,112,2.2,-999.0,71,-99.99,,,0.00,Acu-Link.com,2013-10-20 14:08:00,
2013-10-20 10:23:00,53.2,42.5,29.90,NNE,22,1.7,-999.0,67,-99.99,,,0.00,Acu-Link.com,2013-10-20 14:23:00,
2013-10-20 10:38:00,53.8,42.3,29.91,East,90,2.7,-999.0,65,-99.99,,,0.00,Acu-Link.com,2013-10-20 14:38:00,
2013-10-20 10:53:00,54.7,42.8,29.92,East,90,1.7,-999.0,64,-99.99,,,0.00,Acu-Link.com,2013-10-20 14:53:00,
2013-10-20 11:08:00,55.6,42.4,29.91,NNE,22,2.7,-999.0,61,-99.99,,,0.00,Acu-Link.com,2013-10-20 15:08:00,
2013-10-20 11:23:00,56.3,42.2,29.92,NNE,22,0.0,-999.0,59,-99.99,,,0.00,Acu-Link.com,2013-10-20 15:23:00,
2013-10-20 11:39:00,56.5,39.6,29.91,NNW,337,3.7,-999.0,53,-99.99,,,0.00,Acu-Link.com,2013-10-20 15:39:00,
2013-10-20 11:54:00,57.6,41.1,29.91,NNE,22,3.7,-999.0,54,-99.99,,,0.00,Acu-Link.com,2013-10-20 15:54:00,
2013-10-20 12:09:00,58.8,42.7,29.91,East,90,3.2,-999.0,55,-99.99,,,0.00,Acu-Link.com,2013-10-20 16:09:00,
2013-10-20 12:24:00,59.2,42.1,29.91,East,90,3.7,-999.0,53,-99.99,,,0.00,Acu-Link.com,2013-10-20 16:24:00,
2013-10-20 12:39:00,60.6,42.4,29.91,East,90,2.7,-999.0,51,-99.99,,,0.00,Acu-Link.com,2013-10-20 16:39:00,
2013-10-20 12:54:00,60.3,42.6,29.90,SSW,202,1.7,-999.0,52,-99.99,,,0.00,Acu-Link.com,2013-10-20 16:54:00,
2013-10-20 13:09:00,61.2,42.9,29.89,SE,135,1.1,-999.0,51,-99.99,,,0.00,Acu-Link.com,2013-10-20 17:09:00,
2013-10-20 13:25:00,63.3,42.7,29.88,SE,135,3.2,-999.0,47,-99.99,,,0.00,Acu-Link.com,2013-10-20 17:25:00,
2013-10-20 13:40:00,63.7,43.1,29.88,SSE,157,2.2,-999.0,47,-99.99,,,0.00,Acu-Link.com,2013-10-20 17:40:00,
2013-10-20 13:55:00,62.8,42.8,29.88,SSW,202,1.1,-999.0,48,-99.99,,,0.00,Acu-Link.com,2013-10-20 17:55:00,
2013-10-20 14:10:00,63.9,43.8,29.87,East,90,2.7,-999.0,48,-99.99,,,0.00,Acu-Link.com,2013-10-20 18:10:00,
2013-10-20 14:25:00,63.1,43.1,29.87,NE,45,2.7,-999.0,48,-99.99,,,0.00,Acu-Link.com,2013-10-20 18:25:00,
2013-10-20 14:40:00,62.6,44.7,29.87,East,90,1.1,-999.0,52,-99.99,,,0.00,Acu-Link.com,2013-10-20 18:40:00,
2013-10-20 14:55:00,63.5,44.0,29.86,WNW,292,2.2,-999.0,49,-99.99,,,0.00,Acu-Link.com,2013-10-20 18:55:00,
2013-10-20 15:10:00,63.9,43.8,29.86,SSE,157,0.0,-999.0,48,-99.99,,,0.00,Acu-Link.com,2013-10-20 19:10:00,
2013-10-20 16:35:00,63.5,45.0,29.86,ESE,112,0.0,-999.0,51,-99.99,,,0.00,Acu-Link.com,2013-10-20 20:35:00,
2013-10-20 16:50:00,63.0,45.6,29.86,SSE,157,0.0,-999.0,53,-99.99,,,0.00,Acu-Link.com,2013-10-20 20:50:00,
2013-10-20 17:05:00,62.6,45.2,29.86,SW,225,0.0,-999.0,53,-99.99,,,0.00,Acu-Link.com,2013-10-20 21:05:00,
2013-10-20 17:20:00,61.9,45.6,29.86,SSW,202,0.0,-999.0,55,-99.99,,,0.00,Acu-Link.com,2013-10-20 21:20:00,